createdAt,value
2019-02-21T00:01:36.297Z,10.63
2019-02-21T00:04:03.892Z,10.33
2019-02-21T00:06:31.231Z,11.23
2019-02-21T00:08:58.399Z,11.60
2019-02-21T00:11:25.581Z,12.00
2019-02-21T00:13:52.853Z,11.13
2019-02-21T00:16:20.049Z,11.40
2019-02-21T00:18:47.215Z,11.10
2019-02-21T00:21:14.526Z,11.53
2019-02-21T00:23:41.584Z,10.60
2019-02-21T00:26:08.860Z,10.07
2019-02-21T00:28:36.064Z,10.90
2019-02-21T00:31:03.262Z,11.80
2019-02-21T00:33:30.536Z,10.77
2019-02-21T00:35:57.654Z,11.07
2019-02-21T00:38:24.907Z,11.27
2019-02-21T00:40:52.291Z,13.20
2019-02-21T00:43:19.603Z,12.33
2019-02-21T00:45:46.756Z,12.47
2019-02-21T00:48:13.838Z,13.00
2019-02-21T00:50:40.976Z,13.40
2019-02-21T00:53:08.127Z,12.80
2019-02-21T00:55:35.282Z,12.37
2019-02-21T00:58:02.536Z,12.70
2019-02-21T01:00:29.801Z,13.13
2019-02-21T01:02:56.967Z,12.83
2019-02-21T01:05:24.194Z,12.50
2019-02-21T01:07:51.352Z,11.40
2019-02-21T01:10:18.810Z,12.13
2019-02-21T01:12:46.130Z,13.20
2019-02-21T01:15:13.420Z,12.13
2019-02-21T01:17:40.618Z,11.90
2019-02-21T01:20:07.921Z,12.33
2019-02-21T01:22:35.381Z,12.50
2019-02-21T01:25:03.054Z,11.70
2019-02-21T01:27:30.621Z,13.17
2019-02-21T01:29:57.932Z,11.80
2019-02-21T01:32:25.091Z,12.07
2019-02-21T01:34:52.381Z,12.30
2019-02-21T01:37:20.039Z,11.77
2019-02-21T01:39:47.239Z,11.30
2019-02-21T01:42:14.426Z,13.13
2019-02-21T01:44:41.677Z,11.97
2019-02-21T01:47:08.740Z,12.23
2019-02-21T01:49:36.283Z,12.70
2019-02-21T01:52:03.470Z,11.70
2019-02-21T01:54:30.735Z,12.53
2019-02-21T01:56:57.934Z,12.50
2019-02-21T01:59:25.481Z,11.10
2019-02-21T02:01:52.715Z,11.60
2019-02-21T02:04:19.869Z,11.40
2019-02-21T02:06:47.419Z,12.57
2019-02-21T02:09:14.583Z,12.90
2019-02-21T02:11:41.898Z,11.50
2019-02-21T02:14:09.145Z,11.60
2019-02-21T02:16:36.365Z,12.90
2019-02-21T02:19:03.603Z,11.40
2019-02-21T02:21:30.746Z,12.57
2019-02-21T02:23:57.898Z,12.63
2019-02-21T02:26:25.261Z,12.17
2019-02-21T02:28:52.420Z,12.13
2019-02-21T02:31:23.427Z,12.07
2019-02-21T02:33:48.876Z,11.90
2019-02-21T02:36:16.346Z,10.80
2019-02-21T02:38:43.519Z,12.10
2019-02-21T02:41:10.958Z,12.00
2019-02-21T02:43:38.214Z,13.97
2019-02-21T02:46:05.364Z,12.90
2019-02-21T02:48:32.632Z,12.93
2019-02-21T02:50:59.698Z,12.60
2019-02-21T02:53:26.845Z,12.03
2019-02-21T02:55:54.065Z,13.03
2019-02-21T02:58:21.297Z,12.73
2019-02-21T03:00:49.181Z,11.90
2019-02-21T03:03:16.448Z,10.37
2019-02-21T03:05:43.580Z,11.53
2019-02-21T03:08:10.820Z,10.70
2019-02-21T03:10:37.953Z,10.80
2019-02-21T03:13:05.231Z,11.40
2019-02-21T03:15:32.296Z,10.60
2019-02-21T03:17:59.374Z,11.43
2019-02-21T03:20:26.529Z,10.43
2019-02-21T03:22:53.724Z,10.13
2019-02-21T03:25:21.944Z,9.77
2019-02-21T03:27:49.172Z,10.40
2019-02-21T03:30:16.369Z,10.73
2019-02-21T03:32:44.028Z,11.53
2019-02-21T03:35:11.266Z,11.37
2019-02-21T03:37:38.493Z,11.93
2019-02-21T03:40:06.537Z,11.77
2019-02-21T03:42:33.740Z,11.90
2019-02-21T03:45:00.940Z,11.20
2019-02-21T03:47:28.178Z,12.50
2019-02-21T03:49:55.352Z,12.80
2019-02-21T03:52:22.529Z,12.17
2019-02-21T03:54:49.735Z,12.10
2019-02-21T03:57:17.112Z,11.60
2019-02-21T03:59:44.305Z,11.87
2019-02-21T04:02:11.503Z,10.57
2019-02-21T04:04:39.678Z,12.97
2019-02-21T04:07:06.980Z,11.53
2019-02-21T04:09:34.215Z,12.63
2019-02-21T04:12:01.499Z,13.53
2019-02-21T04:14:29.808Z,12.23
2019-02-21T04:16:57.390Z,13.20
2019-02-21T04:19:24.652Z,13.13
2019-02-21T04:21:51.884Z,13.37
2019-02-21T04:24:19.202Z,13.17
2019-02-21T04:26:46.384Z,12.70
2019-02-21T04:29:13.550Z,12.47
2019-02-21T04:31:40.768Z,11.17
2019-02-21T04:34:08.289Z,12.90
2019-02-21T04:36:35.435Z,12.10
2019-02-21T04:39:04.087Z,13.30
2019-02-21T04:41:31.451Z,12.67
2019-02-21T04:43:58.629Z,13.90
2019-02-21T04:46:25.886Z,13.00
2019-02-21T04:48:54.948Z,14.00
2019-02-21T04:51:22.195Z,13.10
2019-02-21T04:53:49.487Z,15.07
2019-02-21T04:56:16.664Z,12.97
2019-02-21T04:58:43.913Z,13.57
2019-02-21T05:01:11.099Z,15.03
2019-02-21T05:03:38.381Z,15.30
2019-02-21T05:06:05.530Z,15.00
2019-02-21T05:08:32.840Z,15.80
2019-02-21T05:11:00.308Z,13.83
2019-02-21T05:13:27.600Z,14.50
2019-02-21T05:15:54.863Z,16.77
2019-02-21T05:18:22.037Z,16.23
2019-02-21T05:20:49.088Z,14.50
2019-02-21T05:23:16.412Z,15.60
2019-02-21T05:25:43.542Z,16.83
2019-02-21T05:28:30.651Z,15.83
2019-02-21T05:31:29.268Z,15.70
2019-02-21T05:34:01.497Z,15.37
2019-02-21T05:36:54.546Z,16.47
2019-02-21T05:39:37.032Z,15.90
2019-02-21T05:42:12.957Z,14.30
2019-02-21T05:44:45.240Z,15.20
2019-02-21T05:47:30.680Z,16.47
2019-02-21T05:50:23.399Z,16.73
2019-02-21T05:53:11.186Z,15.07
2019-02-21T05:55:47.589Z,14.70
2019-02-21T05:58:38.777Z,13.97
2019-02-21T06:01:12.512Z,15.67
2019-02-21T06:03:56.830Z,14.53
2019-02-21T06:06:43.656Z,15.17
2019-02-21T06:09:30.409Z,15.60
2019-02-21T06:12:12.501Z,15.37
2019-02-21T06:15:18.342Z,15.40
2019-02-21T06:18:05.139Z,15.80
2019-02-21T06:20:50.208Z,15.20
2019-02-21T06:23:39.311Z,15.13
2019-02-21T06:26:20.126Z,15.27
2019-02-21T06:28:54.584Z,15.07
2019-02-21T06:31:22.116Z,15.13
2019-02-21T06:33:49.695Z,15.03
2019-02-21T06:36:17.005Z,15.83
2019-02-21T06:38:44.477Z,14.80
2019-02-21T06:41:11.991Z,15.53
2019-02-21T06:43:39.241Z,16.30
2019-02-21T06:46:06.809Z,16.37
2019-02-21T06:48:34.946Z,17.40
2019-02-21T06:51:02.127Z,16.47
2019-02-21T06:53:29.389Z,18.90
2019-02-21T06:55:56.572Z,16.00
2019-02-21T06:58:24.144Z,17.90
2019-02-21T07:00:51.440Z,18.27
2019-02-21T07:03:19.189Z,15.23
2019-02-21T07:05:46.366Z,17.40
2019-02-21T07:08:13.581Z,16.80
2019-02-21T07:10:40.645Z,15.77
2019-02-21T07:13:07.956Z,16.03
2019-02-21T07:15:35.109Z,13.97
2019-02-21T07:18:02.201Z,15.77
2019-02-21T07:20:30.721Z,14.63
2019-02-21T07:22:57.934Z,15.30
2019-02-21T07:25:44.852Z,13.20
2019-02-21T07:28:15.586Z,14.67
2019-02-21T07:30:42.934Z,18.60
2019-02-21T07:33:10.296Z,14.67
2019-02-21T07:35:37.389Z,13.30
2019-02-21T07:38:04.563Z,15.87
2019-02-21T07:40:31.776Z,16.57
2019-02-21T07:42:58.970Z,15.83
2019-02-21T07:45:26.280Z,16.57
2019-02-21T07:47:53.444Z,15.27
2019-02-21T07:50:23.065Z,16.80
2019-02-21T07:52:50.160Z,15.63
2019-02-21T07:55:17.338Z,16.93
2019-02-21T07:57:44.556Z,16.70
2019-02-21T08:00:12.338Z,14.50
2019-02-21T08:02:39.484Z,14.97
2019-02-21T08:05:06.846Z,14.37
2019-02-21T08:07:33.953Z,15.23
2019-02-21T08:10:01.163Z,15.83
2019-02-21T08:12:28.360Z,14.93
2019-02-21T08:14:56.366Z,16.30
2019-02-21T08:17:23.598Z,16.93
2019-02-21T08:19:50.792Z,16.00
2019-02-21T08:22:17.972Z,15.77
2019-02-21T08:24:46.068Z,18.00
2019-02-21T08:27:13.372Z,17.77
2019-02-21T08:29:40.537Z,18.37
2019-02-21T08:32:08.370Z,17.20
2019-02-21T08:34:39.752Z,18.40
2019-02-21T08:37:08.837Z,17.00
2019-02-21T08:39:36.138Z,18.23
2019-02-21T08:42:03.372Z,18.47
2019-02-21T08:44:30.578Z,18.57
2019-02-21T08:46:57.816Z,17.27
2019-02-21T08:49:24.982Z,17.47
2019-02-21T08:51:54.854Z,16.27
2019-02-21T08:54:21.334Z,17.60
2019-02-21T08:56:48.584Z,16.60
2019-02-21T08:59:15.744Z,17.07
2019-02-21T09:01:42.962Z,17.50
2019-02-21T09:04:24.115Z,17.37
2019-02-21T09:06:39.312Z,17.50
2019-02-21T09:09:07.136Z,17.50
2019-02-21T09:11:34.344Z,17.37
2019-02-21T09:14:01.484Z,18.23
2019-02-21T09:16:28.914Z,17.03
2019-02-21T09:18:56.069Z,17.70
2019-02-21T09:21:23.248Z,17.70
2019-02-21T09:23:50.438Z,17.50
2019-02-21T09:26:17.552Z,17.33
2019-02-21T09:28:44.731Z,17.80
2019-02-21T09:31:11.902Z,16.70
2019-02-21T09:33:39.432Z,17.43
2019-02-21T09:36:07.191Z,17.80
2019-02-21T09:38:34.965Z,19.27
2019-02-21T09:41:02.790Z,18.90
2019-02-21T09:43:29.980Z,16.87
2019-02-21T09:45:57.176Z,18.70
2019-02-21T09:48:24.362Z,18.80
2019-02-21T09:50:51.448Z,18.27
2019-02-21T09:53:18.655Z,18.20
2019-02-21T09:55:45.809Z,19.70
2019-02-21T09:58:13.150Z,18.70
2019-02-21T10:00:40.325Z,18.27
2019-02-21T10:03:07.591Z,18.40
2019-02-21T10:05:34.791Z,18.80
2019-02-21T10:08:01.974Z,19.93
2019-02-21T10:10:29.139Z,17.70
2019-02-21T10:12:56.573Z,21.27
2019-02-21T10:15:23.823Z,18.10
2019-02-21T10:17:51.082Z,18.00
2019-02-21T10:20:18.630Z,19.17
2019-02-21T10:22:45.863Z,19.17
2019-02-21T10:25:23.126Z,19.57
2019-02-21T10:27:50.261Z,20.47
2019-02-21T10:30:18.729Z,17.70
2019-02-21T10:32:45.879Z,19.70
2019-02-21T10:35:13.237Z,19.10
2019-02-21T10:37:40.504Z,18.57
2019-02-21T10:40:09.133Z,19.40
2019-02-21T10:42:36.581Z,17.20
2019-02-21T10:45:05.584Z,19.27
2019-02-21T10:47:32.865Z,18.43
2019-02-21T10:50:00.332Z,19.47
2019-02-21T10:52:27.756Z,17.60
2019-02-21T10:54:54.851Z,18.57
2019-02-21T10:57:22.056Z,20.23
2019-02-21T10:59:49.571Z,18.20
2019-02-21T11:02:17.227Z,18.97
2019-02-21T11:04:54.376Z,19.27
2019-02-21T11:07:13.947Z,17.13
2019-02-21T11:09:41.235Z,19.00
2019-02-21T11:12:08.867Z,18.47
2019-02-21T11:14:46.919Z,18.70
2019-02-21T11:17:05.115Z,20.73
2019-02-21T11:19:32.456Z,18.03
2019-02-21T11:21:59.601Z,17.37
2019-02-21T11:24:26.829Z,18.30
2019-02-21T11:26:54.041Z,19.37
2019-02-21T11:29:21.225Z,17.87
2019-02-21T11:31:48.439Z,18.60
2019-02-21T11:34:15.652Z,18.13
2019-02-21T11:36:42.815Z,17.87
2019-02-21T11:39:10.159Z,18.17
2019-02-21T11:41:37.252Z,17.10
2019-02-21T11:44:04.484Z,18.90
2019-02-21T11:46:31.698Z,18.27
2019-02-21T11:48:58.898Z,17.80
2019-02-21T11:51:26.080Z,18.17
2019-02-21T11:53:53.730Z,19.07
2019-02-21T11:56:20.912Z,18.47
2019-02-21T11:58:48.100Z,16.87
2019-02-21T12:01:15.294Z,19.23
2019-02-21T12:03:42.530Z,18.20
2019-02-21T12:06:09.720Z,19.63
2019-02-21T12:08:36.932Z,18.57
2019-02-21T12:11:04.144Z,19.60
2019-02-21T12:13:31.358Z,20.40
2019-02-21T12:15:59.157Z,19.77
2019-02-21T12:18:26.494Z,18.07
2019-02-21T12:20:53.610Z,20.23
2019-02-21T12:23:20.814Z,18.50
2019-02-21T12:25:48.373Z,20.03
2019-02-21T12:28:15.620Z,19.33
2019-02-21T12:30:42.822Z,19.33
2019-02-21T12:33:10.030Z,19.50
2019-02-21T12:35:37.243Z,18.17
2019-02-21T12:38:04.510Z,19.23
2019-02-21T12:40:31.799Z,18.23
2019-02-21T12:42:59.419Z,19.20
2019-02-21T12:45:26.557Z,20.10
2019-02-21T12:47:54.300Z,20.17
2019-02-21T12:50:22.287Z,19.50
2019-02-21T12:52:49.475Z,18.70
2019-02-21T12:55:27.350Z,20.40
2019-02-21T12:57:45.955Z,17.93
2019-02-21T13:00:15.977Z,20.53
2019-02-21T13:02:44.085Z,19.00
2019-02-21T13:05:11.760Z,18.30
2019-02-21T13:07:39.460Z,19.50
2019-02-21T13:10:09.585Z,19.13
2019-02-21T13:12:36.868Z,19.70
2019-02-21T13:15:04.878Z,19.73
2019-02-21T13:17:32.682Z,18.20
2019-02-21T13:19:59.854Z,19.40
2019-02-21T13:22:27.149Z,18.93
2019-02-21T13:24:54.727Z,17.87
2019-02-21T13:27:21.955Z,16.60
2019-02-21T13:29:49.548Z,20.33
2019-02-21T13:32:16.837Z,18.40
2019-02-21T13:34:43.960Z,20.87
2019-02-21T13:37:11.149Z,19.30
2019-02-21T13:39:38.382Z,19.40
2019-02-21T13:42:05.675Z,19.20
2019-02-21T13:44:34.010Z,17.67
2019-02-21T13:47:01.124Z,16.57
2019-02-21T13:49:28.407Z,18.00
2019-02-21T13:51:55.553Z,17.50
2019-02-21T13:54:22.729Z,18.87
2019-02-21T13:56:49.999Z,17.20
2019-02-21T13:59:17.184Z,18.20
2019-02-21T14:01:44.588Z,17.60
2019-02-21T14:04:11.770Z,16.93
2019-02-21T14:06:38.940Z,16.27
2019-02-21T14:09:06.751Z,15.93
2019-02-21T14:11:33.958Z,20.27
2019-02-21T14:14:01.131Z,15.57
2019-02-21T14:16:28.356Z,17.77
2019-02-21T14:18:56.119Z,16.20
2019-02-21T14:21:23.353Z,17.03
2019-02-21T14:23:50.524Z,16.40
2019-02-21T14:26:17.761Z,18.07
2019-02-21T14:28:44.886Z,17.30
2019-02-21T14:31:12.252Z,18.30
2019-02-21T14:33:39.353Z,19.40
2019-02-21T14:36:15.108Z,18.67
2019-02-21T14:38:37.905Z,19.17
2019-02-21T14:41:05.367Z,18.80
2019-02-21T14:43:32.606Z,19.03
2019-02-21T14:46:02.504Z,17.70
2019-02-21T14:48:29.885Z,19.00
2019-02-21T14:51:09.346Z,16.90
2019-02-21T14:53:36.561Z,18.20
2019-02-21T14:56:44.889Z,18.67
2019-02-21T15:02:32.711Z,17.30
2019-02-21T15:10:41.262Z,17.77
2019-02-21T15:13:08.495Z,17.83
2019-02-21T15:15:36.012Z,18.67
2019-02-21T15:18:43.943Z,19.67
2019-02-21T15:21:11.139Z,17.43
2019-02-21T15:26:37.677Z,18.27
2019-02-21T15:29:05.133Z,19.17
2019-02-21T15:35:12.339Z,20.60
2019-02-21T15:38:00.542Z,19.33
2019-02-21T15:41:29.032Z,19.53
2019-02-21T15:43:56.586Z,20.13
2019-02-21T15:46:23.806Z,19.03
2019-02-21T15:48:51.143Z,19.60
2019-02-21T15:51:18.824Z,19.03
2019-02-21T15:53:46.451Z,19.87
2019-02-21T15:56:13.671Z,20.37
2019-02-21T15:58:40.855Z,20.47
2019-02-21T16:01:08.058Z,18.93
2019-02-21T16:03:35.696Z,17.83
2019-02-21T16:06:02.810Z,17.80
2019-02-21T16:08:29.997Z,19.10
2019-02-21T16:10:57.264Z,19.10
2019-02-21T16:13:24.913Z,20.47
2019-02-21T16:15:52.444Z,19.97
2019-02-21T16:18:19.674Z,20.77
2019-02-21T16:20:47.194Z,19.33
2019-02-21T16:23:14.316Z,17.83
2019-02-21T16:25:41.617Z,19.67
2019-02-21T16:28:09.137Z,19.77
2019-02-21T16:30:36.315Z,19.50
2019-02-21T16:33:03.517Z,21.00
2019-02-21T16:35:30.576Z,19.40
2019-02-21T16:37:57.747Z,20.10
2019-02-21T16:40:25.646Z,21.40
2019-02-21T16:42:52.948Z,22.00
2019-02-21T16:45:20.132Z,20.00
2019-02-21T16:47:47.338Z,19.00
2019-02-21T16:50:14.521Z,20.47
2019-02-21T16:52:41.851Z,20.40
2019-02-21T16:55:11.470Z,19.03
2019-02-21T16:57:38.675Z,19.97
2019-02-21T17:00:07.284Z,19.20
2019-02-21T17:02:34.471Z,20.00
2019-02-21T17:05:01.568Z,20.43
2019-02-21T17:07:28.875Z,20.67
2019-02-21T17:09:56.088Z,20.10
2019-02-21T17:12:23.639Z,19.93
2019-02-21T17:14:51.216Z,20.93
2019-02-21T17:17:19.001Z,20.13
2019-02-21T17:19:46.208Z,20.23
2019-02-21T17:22:13.413Z,19.97
2019-02-21T17:24:40.588Z,20.70
2019-02-21T17:27:07.775Z,21.00
2019-02-21T17:29:35.058Z,19.63
2019-02-21T17:32:02.289Z,20.00
2019-02-21T17:34:29.586Z,22.10
2019-02-21T17:36:56.847Z,23.50
2019-02-21T17:39:24.067Z,20.93
2019-02-21T17:41:51.246Z,22.67
2019-02-21T17:44:18.468Z,23.87
2019-02-21T17:46:45.553Z,21.00
2019-02-21T17:49:12.714Z,24.10
2019-02-21T17:51:40.457Z,22.73
2019-02-21T17:54:07.679Z,22.97
2019-02-21T17:56:35.149Z,21.37
2019-02-21T17:59:02.633Z,23.33
2019-02-21T18:01:29.966Z,20.90
2019-02-21T18:03:57.494Z,20.77
2019-02-21T18:06:24.737Z,21.93
2019-02-21T18:08:54.893Z,21.50
2019-02-21T18:11:21.406Z,22.10
2019-02-21T18:13:48.631Z,20.47
2019-02-21T18:16:15.858Z,21.90
2019-02-21T18:18:43.040Z,22.53
2019-02-21T18:21:10.448Z,21.30
2019-02-21T18:23:37.669Z,21.73
2019-02-21T18:26:11.962Z,22.20
2019-02-21T18:28:39.115Z,22.60
2019-02-21T18:31:06.401Z,21.97
2019-02-21T18:33:33.497Z,21.70
2019-02-21T18:36:00.754Z,22.87
2019-02-21T18:38:27.975Z,21.00
2019-02-21T18:40:55.283Z,23.20
2019-02-21T18:43:23.137Z,23.93
2019-02-21T18:45:51.051Z,23.30
2019-02-21T18:48:18.303Z,24.57
2019-02-21T18:50:45.501Z,21.50
2019-02-21T18:53:13.089Z,23.60
2019-02-21T18:55:40.660Z,23.43
2019-02-21T18:58:08.273Z,22.83
2019-02-21T19:00:35.491Z,25.10
2019-02-21T19:03:02.681Z,25.53
2019-02-21T19:05:35.918Z,25.23
2019-02-21T19:08:05.264Z,22.73
2019-02-21T19:10:28.208Z,25.53
2019-02-21T19:12:55.622Z,23.33
2019-02-21T19:15:25.075Z,23.87
2019-02-21T19:17:52.190Z,24.37
2019-02-21T19:20:19.506Z,23.50
2019-02-21T19:22:46.674Z,24.90
2019-02-21T19:25:14.060Z,24.90
2019-02-21T19:27:41.301Z,24.27
2019-02-21T19:30:12.408Z,23.53
2019-02-21T19:32:39.806Z,24.00
2019-02-21T19:35:07.396Z,24.27
2019-02-21T19:37:34.598Z,23.30
2019-02-21T19:40:01.787Z,23.67
2019-02-21T19:42:29.319Z,23.30
2019-02-21T19:44:56.608Z,24.03
2019-02-21T19:47:23.770Z,24.00
2019-02-21T19:49:51.357Z,23.07
2019-02-21T19:52:18.443Z,25.00
2019-02-21T19:54:45.652Z,22.80
2019-02-21T19:57:12.852Z,24.47
2019-02-21T19:59:40.082Z,24.60
2019-02-21T20:02:07.344Z,23.87
2019-02-21T20:04:34.568Z,24.37
2019-02-21T20:07:01.786Z,23.33
2019-02-21T20:09:29.095Z,25.50
2019-02-21T20:11:56.600Z,24.70
2019-02-21T20:14:24.830Z,23.30
2019-02-21T20:16:52.028Z,21.90
2019-02-21T20:19:19.273Z,23.93
2019-02-21T20:21:46.451Z,23.80
2019-02-21T20:24:14.174Z,23.17
2019-02-21T20:26:41.376Z,24.27
2019-02-21T20:29:08.610Z,23.63
2019-02-21T20:31:35.808Z,23.60
2019-02-21T20:34:03.559Z,23.37
2019-02-21T20:36:30.811Z,23.23
2019-02-21T20:38:57.974Z,23.63
2019-02-21T20:41:25.297Z,23.60
2019-02-21T20:43:53.616Z,23.60
2019-02-21T20:46:20.796Z,24.53
2019-02-21T20:48:48.099Z,24.30
2019-02-21T20:51:15.362Z,26.13
2019-02-21T20:53:42.553Z,24.40
2019-02-21T20:56:10.176Z,27.50
2019-02-21T20:58:37.399Z,24.10
2019-02-21T21:01:06.841Z,25.40
2019-02-21T21:03:34.102Z,23.93
2019-02-21T21:06:01.468Z,26.87
2019-02-21T21:08:28.819Z,25.67
2019-02-21T21:10:56.063Z,25.87
2019-02-21T21:13:23.392Z,26.30
2019-02-21T21:15:50.492Z,26.60
2019-02-21T21:18:17.719Z,24.90
2019-02-21T21:20:44.793Z,25.80
2019-02-21T21:23:12.350Z,24.70
2019-02-21T21:25:39.716Z,25.40
2019-02-21T21:28:06.887Z,24.23
2019-02-21T21:30:34.102Z,27.37
2019-02-21T21:33:01.225Z,26.40
2019-02-21T21:35:28.767Z,25.87
2019-02-21T21:37:55.953Z,25.33
2019-02-21T21:40:23.189Z,25.73
2019-02-21T21:42:50.730Z,24.83
2019-02-21T21:45:18.462Z,26.00
2019-02-21T21:47:45.565Z,26.77
2019-02-21T21:50:14.243Z,25.00
2019-02-21T21:52:41.495Z,24.23
2019-02-21T21:55:08.942Z,25.63
2019-02-21T21:57:36.534Z,24.50
2019-02-21T22:00:05.373Z,25.27
2019-02-21T22:02:32.579Z,26.03
2019-02-21T22:05:00.316Z,23.83
2019-02-21T22:07:27.363Z,23.87
2019-02-21T22:09:54.755Z,23.93
2019-02-21T22:12:21.935Z,24.73
2019-02-21T22:14:49.509Z,23.27
2019-02-21T22:17:16.629Z,23.57
2019-02-21T22:19:43.809Z,23.17
2019-02-21T22:22:10.993Z,21.87
2019-02-21T22:24:38.331Z,21.93
2019-02-21T22:27:05.603Z,23.10
2019-02-21T22:29:32.805Z,22.57
2019-02-21T22:32:00.105Z,22.83
2019-02-21T22:34:27.317Z,23.10
2019-02-21T22:36:54.510Z,21.93
2019-02-21T22:39:21.732Z,22.63
2019-02-21T22:41:48.892Z,23.10
2019-02-21T22:44:16.002Z,23.93
2019-02-21T22:46:43.911Z,24.57
2019-02-21T22:49:11.086Z,23.47
2019-02-21T22:51:38.271Z,24.33
2019-02-21T22:54:05.597Z,24.07
2019-02-21T22:56:32.776Z,24.33
2019-02-21T22:59:00.044Z,26.60
2019-02-21T23:01:30.479Z,24.80
2019-02-21T23:04:38.163Z,24.90
2019-02-21T23:07:19.812Z,27.43
2019-02-21T23:09:46.972Z,29.37
2019-02-21T23:12:14.276Z,26.17
2019-02-21T23:14:41.567Z,28.30
2019-02-21T23:17:08.674Z,31.27
2019-02-21T23:19:35.885Z,30.10
2019-02-21T23:22:03.109Z,29.73
2019-02-21T23:24:30.269Z,30.90
2019-02-21T23:26:57.450Z,30.37
2019-02-21T23:29:24.638Z,30.50
2019-02-21T23:31:51.942Z,27.40
2019-02-21T23:34:29.902Z,29.97
2019-02-21T23:36:57.119Z,30.10
2019-02-21T23:39:24.331Z,28.20
2019-02-21T23:41:51.399Z,29.27
2019-02-21T23:44:18.685Z,28.50
2019-02-21T23:46:47.203Z,29.63
2019-02-21T23:49:14.529Z,28.87
2019-02-21T23:51:41.696Z,30.20
2019-02-21T23:54:08.882Z,30.27
2019-02-21T23:56:36.114Z,30.77
2019-02-21T23:59:03.774Z,29.23
